Natchez Express — WDF9419 — position and weather

sailwx.info

Track history (hours):
 
Tides and Currents Weather Stations Pressure Air Temp Water Temp Dewpoint Dewpoint Depression Visibility Wind Speed Wind Dir Waves Ship Positions

Natchez Express

Owner: Genesis Marine, LLC, Houston, TX. More information available from US FCC via Universal Licensing System and Coast Guard Vessel Documentation Center.

Last reported at 2017-Aug-22 12:37 UTC. Time now 2017-Sep-19 11:50 UTC.
Position N 29°32' W 094°54'.
Warning: this ship's position is 27 days out of date.

Length 26 m; draft 3 m.

Type: Other ship. MMSI: 367504960.

Date/timePositionNaut miles runAvg speedWind from/ knotsBaromVisibWave heightAir tempDewpointWater temp
2017-Aug-22 12:37N 29°32' W 094°54'1 5.4
2017-Aug-22 12:30N 29°33' W 094°54'3 5.5
2017-Aug-22 12:00N 29°35' W 094°56'3 5.7
2017-Aug-22 11:30N 29°37' W 094°58'3 6.2
2017-Aug-22 11:00N 29°40' W 094°59'3 5.7
2017-Aug-22 10:30N 29°42' W 095°01'3 5.4
2017-Aug-22 10:00N 29°44' W 095°03'2 3.8
2017-Aug-22 09:23N 29°45' W 095°06'0 0.2
2017-Aug-22 08:54N 29°45' W 095°06'0 0.0
2017-Aug-21 20:15N 29°45' W 095°06'0 0.0
2017-Aug-21 18:38N 29°45' W 095°06'0 0.0
2017-Aug-21 18:14N 29°45' W 095°06'0 0.0
2017-Aug-21 17:58N 29°45' W 095°06'0 0.0
2017-Aug-21 17:21N 29°45' W 095°06'0 0.0
2017-Aug-21 17:00N 29°45' W 095°06'0 0.0
2017-Aug-21 16:28N 29°45' W 095°06'0 0.0
2017-Aug-21 16:00N 29°45' W 095°06'0 0.0
2017-Aug-21 15:25N 29°45' W 095°06'0 0.0
2017-Aug-21 14:51N 29°45' W 095°06'0 0.0
2017-Aug-21 14:26N 29°45' W 095°06'0 0.0
2017-Aug-21 13:28N 29°45' W 095°06'0 0.0
2017-Aug-21 12:57N 29°45' W 095°06'0 0.0
2017-Aug-21 12:30N 29°45' W 095°06'0 0.0
2017-Aug-21 11:58N 29°45' W 095°06'0 0.0
2017-Aug-21 11:28N 29°45' W 095°06'0 0.0
2017-Aug-21 11:00N 29°45' W 095°06'0 0.0
2017-Aug-21 10:14N 29°45' W 095°06'0 0.0
2017-Aug-21 09:56N 29°45' W 095°06'0 0.0
2017-Aug-21 09:13N 29°45' W 095°06'0 0.0
2017-Aug-21 08:49N 29°45' W 095°06'0 0.0
2017-Aug-21 08:29N 29°45' W 095°06'0 0.0
2017-Aug-21 08:00N 29°45' W 095°06'0 0.0
2017-Aug-21 07:28N 29°45' W 095°06'0 0.0
2017-Aug-21 06:55N 29°45' W 095°06'0 0.0
2017-Aug-21 06:29N 29°45' W 095°06'0 0.0
2017-Aug-21 05:55N 29°45' W 095°06'0 0.0
2017-Aug-21 05:30N 29°45' W 095°06'0 0.0
2017-Aug-21 04:54N 29°45' W 095°06'0 0.0
2017-Aug-21 04:10N 29°45' W 095°06'0 0.0
2017-Aug-21 03:48N 29°45' W 095°06'0 0.0
2017-Aug-21 02:54N 29°45' W 095°06'0 0.0
2017-Aug-21 00:35N 29°45' W 095°06'0 0.0
2017-Aug-21 00:16N 29°45' W 095°06'0 0.0
2017-Aug-20 23:17N 29°45' W 095°06'0 0.2
2017-Aug-20 22:57N 29°45' W 095°06'0 0.0
2017-Aug-20 22:28N 29°45' W 095°06'0 0.0
2017-Aug-20 21:54N 29°45' W 095°06'0 0.0
2017-Aug-20 21:24N 29°45' W 095°06'0 0.0
2017-Aug-20 20:54N 29°45' W 095°06'0 0.0
2017-Aug-20 20:28N 29°45' W 095°06'0 0.0
2017-Aug-20 19:58N 29°45' W 095°06'0 0.7
2017-Aug-20 19:28N 29°45' W 095°06'2 2.8
2017-Aug-20 18:48N 29°47' W 095°05'1 0.2
2017-Aug-20 16:14N 29°47' W 095°04'2 2.0
2017-Aug-20 15:23N 29°46' W 095°05'1 1.9
2017-Aug-20 15:00N 29°46' W 095°06'0 0.0
2017-Aug-20 14:30N 29°46' W 095°06'0 0.0
2017-Aug-20 14:00N 29°46' W 095°06'0 0.0
2017-Aug-20 13:30N 29°46' W 095°06'1 2.5
2017-Aug-20 13:00N 29°46' W 095°05'1 1.1
2017-Aug-20 12:08N 29°47' W 095°04'0 0.0
2017-Aug-20 10:58N 29°47' W 095°04'1 1.2
2017-Aug-20 09:45N 29°46' W 095°05'1 3.2
2017-Aug-20 09:30N 29°45' W 095°04'2 4.3
2017-Aug-20 09:00N 29°44' W 095°02'2 4.6
2017-Aug-20 08:30N 29°42' W 095°00'3 5.2
2017-Aug-20 08:00N 29°40' W 094°59'3 5.5
2017-Aug-20 07:30N 29°38' W 094°58'3 5.9
2017-Aug-20 07:00N 29°35' W 094°56'3 6.4
2017-Aug-20 06:30N 29°32' W 094°54'3 5.9
2017-Aug-20 05:59N 29°30' W 094°52'  
Track history (hours):
 
Tides and Currents Weather Stations Pressure Air Temp Water Temp Dewpoint Dewpoint Depression Visibility Wind Speed Wind Dir Waves Ship Positions

Natchez Express

Owner: Genesis Marine, LLC, Houston, TX. More information available from US FCC via Universal Licensing System and Coast Guard Vessel Documentation Center.

Last reported at 2017-Aug-22 12:37 UTC. Time now 2017-Sep-19 11:50 UTC.
Position N 29°32' W 094°54'.
Warning: this ship's position is 27 days out of date.

Length 26 m; draft 3 m.

Type: Other ship. MMSI: 367504960.

Date/timePositionNaut miles runAvg speedWind from/ knotsBaromVisibWave heightAir tempDewpointWater temp
2017-Aug-22 12:37N 29°32' W 094°54'1 5.4
2017-Aug-22 12:30N 29°33' W 094°54'3 5.5
2017-Aug-22 12:00N 29°35' W 094°56'3 5.7
2017-Aug-22 11:30N 29°37' W 094°58'3 6.2
2017-Aug-22 11:00N 29°40' W 094°59'3 5.7
2017-Aug-22 10:30N 29°42' W 095°01'3 5.4
2017-Aug-22 10:00N 29°44' W 095°03'2 3.8
2017-Aug-22 09:23N 29°45' W 095°06'0 0.2
2017-Aug-22 08:54N 29°45' W 095°06'0 0.0
2017-Aug-21 20:15N 29°45' W 095°06'0 0.0
2017-Aug-21 18:38N 29°45' W 095°06'0 0.0
2017-Aug-21 18:14N 29°45' W 095°06'0 0.0
2017-Aug-21 17:58N 29°45' W 095°06'0 0.0
2017-Aug-21 17:21N 29°45' W 095°06'0 0.0
2017-Aug-21 17:00N 29°45' W 095°06'0 0.0
2017-Aug-21 16:28N 29°45' W 095°06'0 0.0
2017-Aug-21 16:00N 29°45' W 095°06'0 0.0
2017-Aug-21 15:25N 29°45' W 095°06'0 0.0
2017-Aug-21 14:51N 29°45' W 095°06'0 0.0
2017-Aug-21 14:26N 29°45' W 095°06'0 0.0
2017-Aug-21 13:28N 29°45' W 095°06'0 0.0
2017-Aug-21 12:57N 29°45' W 095°06'0 0.0
2017-Aug-21 12:30N 29°45' W 095°06'0 0.0
2017-Aug-21 11:58N 29°45' W 095°06'0 0.0
2017-Aug-21 11:28N 29°45' W 095°06'0 0.0
2017-Aug-21 11:00N 29°45' W 095°06'0 0.0
2017-Aug-21 10:14N 29°45' W 095°06'0 0.0
2017-Aug-21 09:56N 29°45' W 095°06'0 0.0
2017-Aug-21 09:13N 29°45' W 095°06'0 0.0
2017-Aug-21 08:49N 29°45' W 095°06'0 0.0
2017-Aug-21 08:29N 29°45' W 095°06'0 0.0
2017-Aug-21 08:00N 29°45' W 095°06'0 0.0
2017-Aug-21 07:28N 29°45' W 095°06'0 0.0
2017-Aug-21 06:55N 29°45' W 095°06'0 0.0
2017-Aug-21 06:29N 29°45' W 095°06'0 0.0
2017-Aug-21 05:55N 29°45' W 095°06'0 0.0
2017-Aug-21 05:30N 29°45' W 095°06'0 0.0
2017-Aug-21 04:54N 29°45' W 095°06'0 0.0
2017-Aug-21 04:10N 29°45' W 095°06'0 0.0
2017-Aug-21 03:48N 29°45' W 095°06'0 0.0
2017-Aug-21 02:54N 29°45' W 095°06'0 0.0
2017-Aug-21 00:35N 29°45' W 095°06'0 0.0
2017-Aug-21 00:16N 29°45' W 095°06'0 0.0
2017-Aug-20 23:17N 29°45' W 095°06'0 0.2
2017-Aug-20 22:57N 29°45' W 095°06'0 0.0
2017-Aug-20 22:28N 29°45' W 095°06'0 0.0
2017-Aug-20 21:54N 29°45' W 095°06'0 0.0
2017-Aug-20 21:24N 29°45' W 095°06'0 0.0
2017-Aug-20 20:54N 29°45' W 095°06'0 0.0
2017-Aug-20 20:28N 29°45' W 095°06'0 0.0
2017-Aug-20 19:58N 29°45' W 095°06'0 0.7
2017-Aug-20 19:28N 29°45' W 095°06'2 2.8
2017-Aug-20 18:48N 29°47' W 095°05'1 0.2
2017-Aug-20 16:14N 29°47' W 095°04'2 2.0
2017-Aug-20 15:23N 29°46' W 095°05'1 1.9
2017-Aug-20 15:00N 29°46' W 095°06'0 0.0
2017-Aug-20 14:30N 29°46' W 095°06'0 0.0
2017-Aug-20 14:00N 29°46' W 095°06'0 0.0
2017-Aug-20 13:30N 29°46' W 095°06'1 2.5
2017-Aug-20 13:00N 29°46' W 095°05'1 1.1
2017-Aug-20 12:08N 29°47' W 095°04'0 0.0
2017-Aug-20 10:58N 29°47' W 095°04'1 1.2
2017-Aug-20 09:45N 29°46' W 095°05'1 3.2
2017-Aug-20 09:30N 29°45' W 095°04'2 4.3
2017-Aug-20 09:00N 29°44' W 095°02'2 4.6
2017-Aug-20 08:30N 29°42' W 095°00'3 5.2
2017-Aug-20 08:00N 29°40' W 094°59'3 5.5
2017-Aug-20 07:30N 29°38' W 094°58'3 5.9
2017-Aug-20 07:00N 29°35' W 094°56'3 6.4
2017-Aug-20 06:30N 29°32' W 094°54'3 5.9
2017-Aug-20 05:59N 29°30' W 094°52'  

Dump ship's entire track history